createdAt,value
2023-04-08T00:02:17.289Z,11.52
2023-04-08T00:04:44.012Z,11.57
2023-04-08T00:07:10.729Z,11.47
2023-04-08T00:09:38.873Z,11.52
2023-04-08T00:12:05.803Z,11.59
2023-04-08T00:14:32.367Z,11.56
2023-04-08T00:16:59.035Z,11.56
2023-04-08T00:19:25.618Z,11.59
2023-04-08T00:21:52.342Z,11.53
2023-04-08T00:24:19.353Z,11.62
2023-04-08T00:26:47.296Z,11.59
2023-04-08T00:29:14.102Z,11.62
2023-04-08T00:31:40.694Z,11.55
2023-04-08T00:34:07.410Z,11.58
2023-04-08T00:36:34.059Z,11.64
2023-04-08T00:39:00.590Z,11.64
2023-04-08T00:41:27.318Z,11.56
2023-04-08T00:43:55.291Z,11.61
2023-04-08T00:46:22.184Z,11.63
2023-04-08T00:48:49.244Z,11.66
2023-04-08T00:51:15.993Z,11.62
2023-04-08T00:53:42.584Z,11.62
2023-04-08T00:56:10.484Z,11.51
2023-04-08T00:58:37.635Z,11.59
2023-04-08T01:01:10.831Z,11.59
2023-04-08T01:03:46.236Z,11.62
2023-04-08T01:06:22.473Z,11.63
2023-04-08T01:08:51.401Z,11.52
2023-04-08T01:11:18.646Z,11.59
2023-04-08T01:13:46.572Z,11.56
2023-04-08T01:16:16.729Z,11.48
2023-04-08T01:18:45.063Z,11.50
2023-04-08T01:21:14.733Z,11.56
2023-04-08T01:23:51.379Z,11.64
2023-04-08T01:26:24.414Z,11.57
2023-04-08T01:28:53.343Z,11.63
2023-04-08T01:31:22.169Z,11.60
2023-04-08T01:33:51.030Z,11.51
2023-04-08T01:36:20.024Z,11.53
2023-04-08T01:38:48.700Z,11.53
2023-04-08T01:41:17.378Z,11.55
2023-04-08T01:43:46.347Z,11.53
2023-04-08T01:46:13.936Z,11.49
2023-04-08T01:48:41.513Z,11.49
2023-04-08T01:51:09.537Z,11.55
2023-04-08T01:53:36.558Z,11.51
2023-04-08T01:56:06.732Z,11.50
2023-04-08T01:58:43.105Z,11.53
2023-04-08T02:01:14.287Z,11.51
2023-04-08T02:03:44.190Z,11.54
2023-04-08T02:06:11.050Z,11.59
2023-04-08T02:08:37.631Z,11.62
2023-04-08T02:11:04.465Z,11.55
2023-04-08T02:13:32.188Z,11.58
2023-04-08T02:16:06.815Z,11.52
2023-04-08T02:18:37.481Z,11.43
2023-04-08T02:21:11.251Z,11.47
2023-04-08T02:23:39.379Z,11.48
2023-04-08T02:26:08.172Z,11.45
2023-04-08T02:28:36.075Z,11.40
2023-04-08T02:31:05.724Z,11.24
2023-04-08T02:33:35.458Z,11.21
2023-04-08T02:36:04.000Z,11.16
2023-04-08T02:38:30.829Z,11.10
2023-04-08T02:40:57.578Z,11.17
2023-04-08T02:43:24.150Z,11.08
2023-04-08T02:45:50.927Z,11.01
2023-04-08T02:48:17.592Z,10.90
2023-04-08T02:50:45.481Z,10.80
2023-04-08T02:53:12.316Z,10.78
2023-04-08T02:55:38.846Z,10.77
2023-04-08T02:58:05.434Z,10.87
2023-04-08T03:00:32.277Z,11.00
2023-04-08T03:02:59.403Z,10.86
2023-04-08T03:05:26.633Z,10.90
2023-04-08T03:07:54.448Z,11.00
2023-04-08T03:10:21.016Z,11.02
2023-04-08T03:12:47.649Z,11.06
2023-04-08T03:15:14.229Z,11.03
2023-04-08T03:17:40.753Z,11.05
2023-04-08T03:20:08.913Z,11.10
2023-04-08T03:22:36.361Z,11.17
2023-04-08T03:25:04.868Z,11.21
2023-04-08T03:27:31.660Z,11.19
2023-04-08T03:29:58.218Z,11.02
2023-04-08T03:32:25.209Z,10.92
2023-04-08T03:34:52.160Z,10.96
2023-04-08T03:37:18.764Z,10.94
2023-04-08T03:39:45.320Z,11.02
2023-04-08T03:42:13.389Z,10.97
2023-04-08T03:44:39.996Z,10.86
2023-04-08T03:47:06.683Z,10.95
2023-04-08T03:49:33.281Z,11.00
2023-04-08T03:51:59.942Z,10.99
2023-04-08T03:54:26.483Z,10.91
2023-04-08T03:56:53.522Z,10.84
2023-04-08T03:59:21.470Z,10.89
2023-04-08T04:01:48.036Z,10.81
2023-04-08T04:04:15.074Z,10.83
2023-04-08T04:06:41.797Z,10.80
2023-04-08T04:09:09.132Z,10.80
2023-04-08T04:11:35.720Z,10.72
2023-04-08T04:14:02.388Z,10.59
2023-04-08T04:16:32.727Z,10.53
2023-04-08T04:18:59.870Z,10.44
2023-04-08T04:21:26.665Z,10.31
2023-04-08T04:23:53.234Z,10.45
2023-04-08T04:26:20.551Z,10.29
2023-04-08T04:28:47.145Z,10.49
2023-04-08T04:31:18.833Z,10.54
2023-04-08T04:33:46.951Z,10.52
2023-04-08T04:36:13.506Z,10.46
2023-04-08T04:38:40.104Z,10.50
2023-04-08T04:41:07.401Z,10.62
2023-04-08T04:43:34.131Z,10.62
2023-04-08T04:46:00.810Z,10.61
2023-04-08T04:48:27.603Z,10.72
2023-04-08T04:51:00.471Z,10.74
2023-04-08T04:53:27.233Z,10.77
2023-04-08T04:55:53.857Z,10.65
2023-04-08T04:58:20.577Z,10.72
2023-04-08T05:00:47.860Z,10.65
2023-04-08T05:03:14.584Z,10.72
2023-04-08T05:05:41.259Z,10.75
2023-04-08T05:08:09.374Z,10.81
2023-04-08T05:10:35.920Z,10.81
2023-04-08T05:13:02.667Z,10.82
2023-04-08T05:15:29.236Z,10.76
2023-04-08T05:17:55.897Z,10.80
2023-04-08T05:20:22.505Z,10.49
2023-04-08T05:22:49.717Z,10.28
2023-04-08T05:25:17.857Z,10.36
2023-04-08T05:27:44.644Z,10.43
2023-04-08T05:30:12.161Z,10.55
2023-04-08T05:32:41.236Z,10.55
2023-04-08T05:35:08.678Z,10.49
2023-04-08T05:37:35.247Z,10.49
2023-04-08T05:40:02.069Z,10.61
2023-04-08T05:42:30.164Z,10.73
2023-04-08T05:44:56.810Z,10.85
2023-04-08T05:47:23.411Z,10.97
2023-04-08T05:49:51.336Z,10.94
2023-04-08T05:52:17.941Z,10.94
2023-04-08T05:54:44.678Z,10.84
2023-04-08T05:57:11.382Z,10.88
2023-04-08T05:59:39.442Z,11.05
2023-04-08T06:02:06.183Z,10.43
2023-04-08T06:04:33.049Z,10.55
2023-04-08T06:06:59.884Z,10.44
2023-04-08T06:09:26.605Z,10.68
2023-04-08T06:11:53.225Z,10.18
2023-04-08T06:14:19.821Z,10.24
2023-04-08T06:16:47.787Z,10.25
2023-04-08T06:19:14.505Z,10.35
2023-04-08T06:21:44.342Z,10.46
2023-04-08T06:24:10.890Z,10.56
2023-04-08T06:26:37.469Z,10.39
2023-04-08T06:29:04.062Z,10.29
2023-04-08T06:31:30.700Z,10.09
2023-04-08T06:33:58.687Z,9.79
2023-04-08T06:36:25.226Z,10.19
2023-04-08T06:38:52.083Z,10.39
2023-04-08T06:41:18.956Z,10.51
2023-04-08T06:43:45.769Z,10.37
2023-04-08T06:46:12.414Z,10.47
2023-04-08T06:48:39.013Z,10.26
2023-04-08T06:51:07.183Z,10.64
2023-04-08T06:53:33.760Z,10.77
2023-04-08T06:56:00.678Z,10.73
2023-04-08T06:58:27.398Z,10.84
2023-04-08T07:00:54.258Z,11.13
2023-04-08T07:03:20.925Z,11.53
2023-04-08T07:05:47.759Z,11.63
2023-04-08T07:08:15.758Z,11.99
2023-04-08T07:10:42.197Z,11.99
2023-04-08T07:13:08.839Z,12.01
2023-04-08T07:15:35.415Z,11.93
2023-04-08T07:18:02.103Z,11.88
2023-04-08T07:20:30.242Z,11.76
2023-04-08T07:22:58.341Z,11.66
2023-04-08T07:25:26.250Z,11.22
2023-04-08T07:27:53.006Z,11.53
2023-04-08T07:30:19.686Z,11.73
2023-04-08T07:32:46.397Z,11.81
2023-04-08T07:35:13.017Z,11.27
2023-04-08T07:37:39.683Z,11.28
2023-04-08T07:40:08.222Z,11.47
2023-04-08T07:42:36.174Z,11.14
2023-04-08T07:45:02.833Z,11.35
2023-04-08T07:47:29.489Z,11.09
2023-04-08T07:49:56.062Z,11.03
2023-04-08T07:52:22.751Z,11.16
2023-04-08T07:54:49.392Z,11.17
2023-04-08T07:57:16.002Z,11.42
2023-04-08T07:59:44.210Z,11.69
2023-04-08T08:02:10.935Z,11.48
2023-04-08T08:04:37.767Z,11.63
2023-04-08T08:07:04.629Z,11.89
2023-04-08T08:09:32.176Z,12.45
2023-04-08T08:11:58.880Z,12.44
2023-04-08T08:14:25.486Z,11.68
2023-04-08T08:16:53.641Z,11.51
2023-04-08T08:19:20.489Z,11.47
2023-04-08T08:21:47.105Z,11.52
2023-04-08T08:24:13.857Z,11.70
2023-04-08T08:26:40.503Z,12.15
2023-04-08T08:29:07.107Z,12.06
2023-04-08T08:31:33.790Z,11.98
2023-04-08T08:34:01.884Z,11.63
2023-04-08T08:36:28.762Z,11.95
2023-04-08T08:38:55.357Z,11.91
2023-04-08T08:41:21.928Z,11.93
2023-04-08T08:43:49.299Z,11.81
2023-04-08T08:46:17.876Z,11.43
2023-04-08T08:48:44.661Z,11.68
2023-04-08T08:51:13.620Z,11.78
2023-04-08T08:53:40.640Z,11.46
2023-04-08T08:58:38.831Z,11.38
2023-04-08T09:01:33.087Z,11.57
2023-04-08T09:04:11.938Z,11.47
2023-04-08T09:06:40.238Z,11.60
2023-04-08T09:09:07.122Z,11.66
2023-04-08T09:11:33.659Z,11.94
2023-04-08T09:14:00.288Z,12.21
2023-04-08T09:16:26.858Z,12.21
2023-04-08T09:18:53.830Z,12.57
2023-04-08T09:21:23.428Z,13.31
2023-04-08T09:23:53.031Z,14.03
2023-04-08T09:26:21.624Z,14.14
2023-04-08T09:28:59.165Z,13.77
2023-04-08T09:31:27.555Z,13.88
2023-04-08T09:33:55.735Z,14.03
2023-04-08T09:36:22.550Z,13.47
2023-04-08T09:38:50.613Z,13.74
2023-04-08T09:41:19.394Z,13.49
2023-04-08T09:43:49.003Z,12.96
2023-04-08T09:46:17.392Z,12.37
2023-04-08T09:48:49.673Z,12.51
2023-04-08T09:51:18.780Z,12.56
2023-04-08T09:53:48.049Z,12.59
2023-04-08T09:56:19.377Z,12.05
2023-04-08T09:58:51.996Z,12.27
2023-04-08T10:01:24.652Z,12.52
2023-04-08T10:03:55.060Z,13.16
2023-04-08T10:06:26.567Z,13.18
2023-04-08T10:08:53.394Z,12.65
2023-04-08T10:11:21.559Z,13.20
2023-04-08T10:13:48.936Z,13.70
2023-04-08T10:16:20.135Z,14.09
2023-04-08T10:18:46.888Z,13.44
2023-04-08T10:21:33.105Z,13.89
2023-04-08T10:24:00.652Z,13.68
2023-04-08T10:26:33.461Z,14.26
2023-04-08T10:29:35.631Z,13.95
2023-04-08T10:32:02.328Z,14.28
2023-04-08T10:34:29.601Z,13.82
2023-04-08T10:36:57.368Z,14.19
2023-04-08T10:39:25.613Z,13.77
2023-04-08T10:41:54.450Z,13.51
2023-04-08T10:44:23.232Z,13.61
2023-04-08T10:46:51.423Z,13.07
2023-04-08T10:49:18.387Z,13.28
2023-04-08T10:51:46.534Z,12.95
2023-04-08T10:54:14.232Z,13.06
2023-04-08T10:56:45.447Z,13.54
2023-04-08T10:59:14.136Z,13.52
2023-04-08T11:01:41.295Z,13.59
2023-04-08T11:04:12.325Z,12.71
2023-04-08T11:06:39.080Z,13.14
2023-04-08T11:09:05.678Z,12.81
2023-04-08T11:11:32.377Z,13.03
2023-04-08T11:13:59.218Z,13.47
2023-04-08T11:16:27.869Z,13.47
2023-04-08T11:18:55.849Z,13.19
2023-04-08T11:21:24.007Z,12.84
2023-04-08T11:23:51.114Z,13.28
2023-04-08T11:26:18.370Z,13.04
2023-04-08T11:28:45.263Z,12.52
2023-04-08T11:31:12.799Z,12.25
2023-04-08T11:33:46.594Z,12.74
2023-04-08T11:36:13.332Z,13.26
2023-04-08T11:38:40.426Z,13.69
2023-04-08T11:41:07.272Z,13.47
2023-04-08T11:43:33.984Z,12.93
2023-04-08T11:46:00.598Z,12.76
2023-04-08T11:48:27.672Z,12.80
2023-04-08T11:51:04.925Z,13.09
2023-04-08T11:53:31.676Z,12.62
2023-04-08T11:55:58.220Z,13.46
2023-04-08T11:58:24.864Z,13.07
2023-04-08T12:00:51.453Z,13.11
2023-04-08T12:03:18.234Z,13.10
2023-04-08T12:05:44.879Z,13.25
2023-04-08T12:08:13.208Z,13.09
2023-04-08T12:10:39.836Z,13.14
2023-04-08T12:13:06.388Z,13.04
2023-04-08T12:15:33.106Z,13.39
2023-04-08T12:17:59.586Z,13.38
2023-04-08T12:20:26.253Z,13.19
2023-04-08T12:22:52.830Z,13.29
2023-04-08T12:25:20.828Z,13.86
2023-04-08T12:27:47.415Z,14.12
2023-04-08T12:30:16.279Z,15.36
2023-04-08T12:32:43.261Z,14.46
2023-04-08T12:35:09.860Z,15.00
2023-04-08T12:37:36.444Z,15.17
2023-04-08T12:40:03.506Z,14.78
2023-04-08T12:42:31.428Z,14.82
2023-04-08T12:44:58.018Z,15.26
2023-04-08T12:47:26.108Z,15.26
2023-04-08T12:49:52.965Z,14.92
2023-04-08T12:52:19.567Z,14.68
2023-04-08T12:54:46.168Z,15.36
2023-04-08T12:57:12.771Z,14.62
2023-04-08T12:59:40.615Z,14.21
2023-04-08T13:02:07.475Z,14.48
2023-04-08T13:04:34.380Z,14.62
2023-04-08T13:07:01.005Z,14.83
2023-04-08T13:09:27.689Z,15.26
2023-04-08T13:11:54.300Z,15.25
2023-04-08T13:14:20.855Z,15.48
2023-04-08T13:16:48.857Z,14.76
2023-04-08T13:19:15.709Z,13.84
2023-04-08T13:21:43.485Z,13.74
2023-04-08T13:24:11.043Z,13.63
2023-04-08T13:26:37.619Z,14.02
2023-04-08T13:29:04.593Z,14.33
2023-04-08T13:31:31.578Z,14.11
2023-04-08T13:33:59.618Z,13.97
2023-04-08T13:36:26.281Z,13.96
2023-04-08T13:38:52.912Z,13.71
2023-04-08T13:41:20.092Z,13.98
2023-04-08T13:43:47.087Z,13.69
2023-04-08T13:46:13.700Z,13.97
2023-04-08T13:48:40.731Z,14.51
2023-04-08T13:51:08.714Z,13.70
2023-04-08T13:53:35.399Z,13.97
2023-04-08T13:56:01.981Z,14.84
2023-04-08T13:58:28.599Z,14.17
2023-04-08T14:00:55.238Z,13.81
2023-04-08T14:03:21.983Z,14.29
2023-04-08T14:05:48.670Z,14.17
2023-04-08T14:08:16.638Z,14.14
2023-04-08T14:10:43.204Z,14.19
2023-04-08T14:13:09.798Z,14.24
2023-04-08T14:15:36.392Z,14.41
2023-04-08T14:18:03.007Z,14.20
2023-04-08T14:20:30.164Z,14.73
2023-04-08T14:22:57.001Z,14.97
2023-04-08T14:25:25.391Z,14.88
2023-04-08T14:27:58.317Z,14.66
2023-04-08T14:30:25.377Z,14.48
2023-04-08T14:32:52.052Z,14.58
2023-04-08T14:35:18.850Z,13.78
2023-04-08T14:37:45.510Z,13.55
2023-04-08T14:40:12.537Z,13.82
2023-04-08T14:42:40.499Z,13.51
2023-04-08T14:45:08.253Z,13.58
2023-04-08T14:47:34.827Z,13.55
2023-04-08T14:50:01.489Z,13.37
2023-04-08T14:52:28.089Z,13.40
2023-04-08T14:54:54.654Z,13.33
2023-04-08T14:57:21.393Z,13.10
2023-04-08T14:59:49.300Z,13.05
2023-04-08T15:02:16.049Z,12.87
2023-04-08T15:04:42.805Z,12.66
2023-04-08T15:07:09.455Z,12.96
2023-04-08T15:09:36.102Z,13.06
2023-04-08T15:12:02.816Z,12.80
2023-04-08T15:14:29.387Z,12.63
2023-04-08T15:16:57.270Z,12.91
2023-04-08T15:19:23.963Z,12.87
2023-04-08T15:21:50.589Z,13.07
2023-04-08T15:24:17.220Z,13.03
2023-04-08T15:26:43.746Z,12.81
2023-04-08T15:29:10.278Z,13.03
2023-04-08T15:31:36.894Z,12.69
2023-04-08T15:34:05.009Z,12.31
2023-04-08T15:36:31.575Z,12.06
2023-04-08T15:38:58.161Z,11.94
2023-04-08T15:41:24.734Z,11.81
2023-04-08T15:43:52.330Z,11.97
2023-04-08T15:46:19.204Z,12.18
2023-04-08T15:48:45.807Z,12.43
2023-04-08T15:51:13.751Z,12.58
2023-04-08T15:53:40.856Z,12.56
2023-04-08T15:56:12.403Z,12.82
2023-04-08T15:58:38.961Z,13.49
2023-04-08T16:01:05.570Z,12.85
2023-04-08T16:03:32.210Z,12.54
2023-04-08T16:05:58.870Z,12.50
2023-04-08T16:08:26.847Z,12.54
2023-04-08T16:10:59.589Z,12.14
2023-04-08T16:13:26.176Z,12.02
2023-04-08T16:15:52.829Z,12.42
2023-04-08T16:18:19.683Z,12.42
2023-04-08T16:20:46.290Z,12.50
2023-04-08T16:23:13.072Z,12.42
2023-04-08T16:25:41.435Z,12.52
2023-04-08T16:28:08.132Z,12.93
2023-04-08T16:30:34.712Z,12.41
2023-04-08T16:33:01.324Z,12.62
2023-04-08T16:35:27.936Z,12.45
2023-04-08T16:37:54.471Z,12.25
2023-04-08T16:40:21.119Z,12.47
2023-04-08T16:42:49.063Z,12.38
2023-04-08T16:45:15.919Z,12.48
2023-04-08T16:47:42.740Z,12.60
2023-04-08T16:50:09.945Z,12.56
2023-04-08T16:52:36.518Z,12.47
2023-04-08T16:55:03.738Z,12.70
2023-04-08T16:57:30.263Z,12.52
2023-04-08T16:59:58.173Z,12.71
2023-04-08T17:02:25.004Z,12.65
2023-04-08T17:04:51.612Z,12.60
2023-04-08T17:07:18.369Z,12.82
2023-04-08T17:09:49.357Z,12.50
2023-04-08T17:12:16.265Z,12.83
2023-04-08T17:14:42.982Z,12.28
2023-04-08T17:17:11.036Z,12.45
2023-04-08T17:19:37.709Z,12.67
2023-04-08T17:22:04.323Z,12.28
2023-04-08T17:24:30.921Z,12.22
2023-04-08T17:26:57.514Z,12.10
2023-04-08T17:29:24.628Z,12.32
2023-04-08T17:31:51.252Z,12.36
2023-04-08T17:34:19.204Z,12.24
2023-04-08T17:36:45.770Z,12.10
2023-04-08T17:39:12.336Z,11.88
2023-04-08T17:41:40.945Z,11.93
2023-04-08T17:44:08.472Z,11.71
2023-04-08T17:46:35.370Z,11.47
2023-04-08T17:49:02.132Z,11.54
2023-04-08T17:51:30.272Z,11.41
2023-04-08T17:53:56.783Z,11.12
2023-04-08T17:56:23.613Z,11.47
2023-04-08T17:58:50.362Z,10.93
2023-04-08T18:01:17.065Z,10.96
2023-04-08T18:03:43.904Z,10.94
2023-04-08T18:06:10.676Z,10.95
2023-04-08T18:08:38.828Z,10.69
2023-04-08T18:11:05.634Z,10.87
2023-04-08T18:13:32.473Z,11.09
2023-04-08T18:15:59.254Z,11.17
2023-04-08T18:18:25.821Z,10.99
2023-04-08T18:20:52.395Z,11.19
2023-04-08T18:23:19.018Z,11.22
2023-04-08T18:25:47.407Z,11.08
2023-04-08T18:28:14.054Z,10.93
2023-04-08T18:30:40.700Z,10.87
2023-04-08T18:33:08.484Z,11.02
2023-04-08T18:35:35.083Z,11.02
2023-04-08T18:38:01.684Z,11.03
2023-04-08T18:40:28.538Z,11.06
2023-04-08T18:42:56.661Z,11.22
2023-04-08T18:45:23.736Z,11.16
2023-04-08T18:47:50.734Z,11.16
2023-04-08T18:50:17.964Z,11.29
2023-04-08T18:52:44.774Z,11.20
2023-04-08T18:55:11.480Z,11.45
2023-04-08T18:57:38.126Z,11.12
2023-04-08T19:00:08.020Z,11.00
2023-04-08T19:02:34.865Z,10.84
2023-04-08T19:05:01.772Z,10.53
2023-04-08T19:07:28.376Z,10.63
2023-04-08T19:09:56.205Z,10.20
2023-04-08T19:12:22.928Z,10.32
2023-04-08T19:14:49.633Z,10.41
2023-04-08T19:17:17.561Z,10.56
2023-04-08T19:19:44.277Z,10.52
2023-04-08T19:22:11.099Z,10.31
2023-04-08T19:24:37.732Z,10.56
2023-04-08T19:27:04.561Z,10.34
2023-04-08T19:29:33.820Z,10.30
2023-04-08T19:32:00.886Z,10.59
2023-04-08T19:34:28.959Z,10.64
2023-04-08T19:36:55.621Z,10.49
2023-04-08T19:39:24.073Z,10.27
2023-04-08T19:41:51.997Z,10.69
2023-04-08T19:44:18.581Z,10.97
2023-04-08T19:46:45.262Z,10.64
2023-04-08T19:49:12.121Z,10.83
2023-04-08T19:51:40.387Z,10.93
2023-04-08T19:54:06.980Z,10.65
2023-04-08T19:56:33.640Z,10.33
2023-04-08T19:59:00.724Z,10.36
2023-04-08T20:01:27.403Z,10.55
2023-04-08T20:03:54.290Z,10.57
2023-04-08T20:06:20.926Z,10.60
2023-04-08T20:08:49.201Z,10.72
2023-04-08T20:11:16.131Z,10.59
2023-04-08T20:13:42.746Z,10.68
2023-04-08T20:16:09.435Z,10.51
2023-04-08T20:18:36.084Z,10.58
2023-04-08T20:21:02.751Z,10.40
2023-04-08T20:23:29.477Z,10.72
2023-04-08T20:25:57.429Z,10.45
2023-04-08T20:28:24.205Z,10.40
2023-04-08T20:30:50.905Z,10.65
2023-04-08T20:33:17.652Z,10.81
2023-04-08T20:35:44.598Z,10.78
2023-04-08T20:38:11.370Z,10.38
2023-04-08T20:40:41.911Z,10.27
2023-04-08T20:43:09.953Z,10.05
2023-04-08T20:45:39.368Z,10.16
2023-04-08T20:48:06.602Z,10.09
2023-04-08T20:50:33.335Z,9.87
2023-04-08T20:53:00.173Z,9.68
2023-04-08T20:55:26.773Z,9.79
2023-04-08T20:57:53.453Z,9.59
2023-04-08T21:00:21.455Z,9.56
2023-04-08T21:02:48.529Z,9.62
2023-04-08T21:05:15.307Z,9.75
2023-04-08T21:07:41.898Z,9.61
2023-04-08T21:10:10.246Z,9.71
2023-04-08T21:12:36.912Z,9.74
2023-04-08T21:15:03.802Z,9.77
2023-04-08T21:17:32.022Z,9.88
2023-04-08T21:19:58.908Z,10.00
2023-04-08T21:22:25.512Z,9.97
2023-04-08T21:24:52.320Z,10.02
2023-04-08T21:27:18.946Z,10.25
2023-04-08T21:29:45.701Z,9.92
2023-04-08T21:32:12.656Z,10.03
2023-04-08T21:34:40.630Z,10.08
2023-04-08T21:37:07.295Z,10.11
2023-04-08T21:39:33.986Z,10.01
2023-04-08T21:42:00.826Z,10.08
2023-04-08T21:44:27.518Z,10.34
2023-04-08T21:46:54.107Z,9.97
2023-04-08T21:49:20.732Z,10.12
2023-04-08T21:51:48.696Z,10.19
2023-04-08T21:54:15.433Z,10.01
2023-04-08T21:56:41.989Z,10.14
2023-04-08T21:59:08.701Z,9.98
2023-04-08T22:01:35.330Z,10.09
2023-04-08T22:04:02.188Z,10.01
2023-04-08T22:06:32.599Z,9.92
2023-04-08T22:09:00.918Z,9.96
2023-04-08T22:11:27.698Z,9.80
2023-04-08T22:13:54.545Z,9.89
2023-04-08T22:16:21.403Z,9.87
2023-04-08T22:18:48.007Z,10.02
2023-04-08T22:21:14.579Z,9.83
2023-04-08T22:23:41.404Z,10.08
2023-04-08T22:26:09.307Z,9.75
2023-04-08T22:28:36.295Z,9.47
2023-04-08T22:31:02.964Z,9.77
2023-04-08T22:33:29.653Z,9.93
2023-04-08T22:35:56.809Z,9.78
2023-04-08T22:38:23.493Z,9.49
2023-04-08T22:40:49.984Z,9.29
2023-04-08T22:43:18.082Z,9.51
2023-04-08T22:45:44.728Z,9.52
2023-04-08T22:48:11.305Z,9.67
2023-04-08T22:50:38.135Z,9.77
2023-04-08T22:53:04.775Z,9.71
2023-04-08T22:55:32.127Z,9.98
2023-04-08T22:57:58.752Z,10.11
2023-04-08T23:00:26.721Z,9.90
2023-04-08T23:02:53.515Z,9.74
2023-04-08T23:05:20.530Z,9.63
2023-04-08T23:07:47.102Z,9.74
2023-04-08T23:10:13.652Z,9.63
2023-04-08T23:12:40.398Z,9.67
2023-04-08T23:15:07.870Z,9.37
2023-04-08T23:17:37.205Z,9.46
2023-04-08T23:20:04.318Z,9.38
2023-04-08T23:22:31.299Z,9.62
2023-04-08T23:24:57.834Z,9.58
2023-04-08T23:27:24.411Z,9.49
2023-04-08T23:29:51.252Z,9.65
2023-04-08T23:32:17.850Z,9.60
2023-04-08T23:34:46.013Z,9.46
2023-04-08T23:37:12.686Z,9.25
2023-04-08T23:39:39.431Z,9.23
2023-04-08T23:42:05.979Z,8.98
2023-04-08T23:44:32.593Z,8.94
2023-04-08T23:47:01.487Z,8.98
2023-04-08T23:49:28.111Z,8.94
2023-04-08T23:51:56.042Z,8.94
2023-04-08T23:54:22.624Z,8.86
2023-04-08T23:56:49.281Z,8.92
2023-04-08T23:59:15.971Z,9.01
